Stations météo

réclame
Mon MeteoGroup
Ilundain, Espagne (8089): Température de l'air & dewpoint: 10.08.2018 03:00:00 - 16.08.2018 03:00:00 (CEST)Ilundain, Espagne (8089): Vitesse du vent & gusts: 10.08.2018 03:00:00 - 16.08.2018 03:00:00 (CEST)Ilundain, Espagne (8089): Direction du vent: 10.08.2018 03:00:00 - 16.08.2018 03:00:00 (CEST)Ilundain, Espagne (8089): Quantités de précipitations: 10.08.2018 03:00:00 - 16.08.2018 03:00:00 (CEST)
Date & Time tt [°C] td [°C] ff [km/h] ff [knt] fx [km/h] fx [knt] dd rr [mm]
16.08.2018 03:00:00 16,1 15,3 2 1 6 4 E 0,0
16.08.2018 02:00:00 16,4 15,3 1 1 6 4 E -
16.08.2018 01:00:00 17,0 15,7 3 2 6 3 E 0,0
16.08.2018 00:00:00 17,7 15,7 4 2 5 3 E 0,0
15.08.2018 23:00:00 18,6 15,4 3 1 6 3 E 0,0
15.08.2018 22:00:00 20,6 15,6 1 1 5 3 S 0,0
15.08.2018 21:00:00 23,3 15,3 1 1 18 10 SSE 0,0
15.08.2018 20:00:00 24,8 15,7 9 5 23 12 ENE -
15.08.2018 19:00:00 26,4 16,3 8 5 21 12 ENE 0,0
15.08.2018 18:00:00 27,9 16,8 9 5 30 16 N 0,0
15.08.2018 17:00:00 28,3 15,9 13 7 - - NW -
15.08.2018 16:00:00 27,8 14,8 7 4 18 10 W 0,0
15.08.2018 15:00:00 27,2 15,3 5 3 14 8 WSW 0,0
15.08.2018 14:00:00 25,7 14,8 6 3 21 11 WNW -
15.08.2018 13:00:00 23,8 14,8 6 4 16 8 W 0,0
15.08.2018 12:00:00 21,6 14,5 3 2 11 6 NNE 0,0
15.08.2018 11:00:00 19,9 14,5 1 1 10 5 S 0,0
15.08.2018 10:00:00 17,7 14,2 3 2 6 4 SSE 0,0
15.08.2018 09:00:00 15,3 14,5 2 1 5 3 E 0,0
15.08.2018 08:00:00 12,5 12,2 3 1 6 3 ESE -
15.08.2018 07:00:00 12,6 11,8 3 2 5 3 E 0,0
15.08.2018 06:00:00 13,8 12,0 1 1 9 5 SE 0,0
15.08.2018 05:00:00 15,9 13,1 4 2 17 9 N 0,0
15.08.2018 04:00:00 16,4 13,0 5 3 21 11 N 0,0
15.08.2018 03:00:00 16,6 13,0 8 4 22 12 N 0,0
15.08.2018 02:00:00 17,1 13,1 11 6 25 13 N -
15.08.2018 01:00:00 17,4 13,4 11 6 29 16 NNE 0,0
15.08.2018 00:00:00 17,2 13,4 5 3 13 7 NNW 0,0
14.08.2018 23:00:00 17,2 12,7 6 3 20 11 NNW 0,0
14.08.2018 22:00:00 18,1 12,5 9 5 27 15 N 0,0
14.08.2018 21:00:00 18,8 13,3 8 5 29 16 NNE 0,0
14.08.2018 20:00:00 19,3 13,3 8 4 24 13 N -
14.08.2018 19:00:00 19,9 13,4 11 6 29 16 NNE 0,0
14.08.2018 18:00:00 20,6 13,6 11 6 30 16 N 0,0
14.08.2018 17:00:00 21,0 13,9 11 6 31 17 NNE 0,0
14.08.2018 16:00:00 20,5 14,1 9 5 28 15 N 0,0
14.08.2018 15:00:00 20,3 14,2 11 6 27 15 N 0,0
14.08.2018 14:00:00 19,2 14,6 8 4 29 16 NE -
14.08.2018 13:00:00 19,8 15,3 13 7 26 14 NNW 0,0
14.08.2018 12:00:00 18,8 14,0 11 6 21 12 NW 0,0
14.08.2018 11:00:00 17,9 14,0 10 6 23 12 NW 0,0
14.08.2018 10:00:00 17,6 13,8 10 5 22 12 N 0,0
14.08.2018 09:00:00 17,2 14,4 9 5 21 11 NW 0,0
14.08.2018 08:00:00 16,1 14,4 8 5 16 9 NW -
14.08.2018 07:00:00 16,2 14,7 4 2 10 5 W 0,0
14.08.2018 06:00:00 16,3 14,3 5 3 14 8 WNW 0,0
14.08.2018 05:00:00 16,3 13,9 4 2 11 6 WNW 0,0
14.08.2018 04:00:00 16,5 14,1 8 5 18 10 N 0,0
14.08.2018 03:00:00 16,5 14,5 5 3 18 10 NNE 0,0
14.08.2018 02:00:00 17,1 14,1 4 2 15 8 N -
14.08.2018 01:00:00 17,3 14,4 9 5 19 11 N 0,0
14.08.2018 00:00:00 17,7 14,2 8 4 15 8 N 0,0
13.08.2018 23:00:00 17,4 13,8 7 4 19 11 NNW 0,0
13.08.2018 22:00:00 18,0 13,3 8 4 24 13 N 0,0
13.08.2018 21:00:00 18,8 13,5 6 3 22 12 NNE 0,0
13.08.2018 20:00:00 20,5 14,1 9 5 26 14 N -
13.08.2018 19:00:00 21,4 14,5 10 6 27 15 NE 0,0
13.08.2018 18:00:00 22,5 14,9 10 5 31 17 NE 0,0
13.08.2018 17:00:00 23,9 15,9 12 7 35 19 N 0,0
13.08.2018 16:00:00 24,4 16,6 13 7 34 19 N 0,0
13.08.2018 15:00:00 24,0 16,3 16 9 32 17 N 0,0
13.08.2018 14:00:00 24,0 16,6 13 7 27 15 N -
13.08.2018 13:00:00 23,6 16,9 13 7 23 13 N 0,0
13.08.2018 12:00:00 21,9 16,8 11 6 20 11 NNW 0,0
13.08.2018 11:00:00 21,1 16,7 9 5 17 9 NW 0,0
13.08.2018 10:00:00 19,7 16,7 4 2 9 5 WNW 0,0
13.08.2018 09:00:00 17,2 16,6 2 1 5 3 ESE 0,0
13.08.2018 08:00:00 15,4 15,3 3 2 6 3 ESE -
13.08.2018 07:00:00 14,5 14,3 3 2 7 4 E 0,0
13.08.2018 06:00:00 14,7 14,4 5 3 7 4 E 0,0
13.08.2018 05:00:00 14,8 14,5 4 2 7 4 E 0,0
13.08.2018 04:00:00 15,0 14,5 4 2 8 4 E 0,0
13.08.2018 03:00:00 15,5 14,9 5 3 6 4 E 0,0
13.08.2018 02:00:00 16,2 15,4 3 1 5 3 E -
13.08.2018 01:00:00 17,2 16,0 4 2 7 4 NE 0,0
13.08.2018 00:00:00 18,0 16,3 0 0 7 4 SSE 0,3
12.08.2018 23:00:00 19,2 15,7 2 1 8 4 SW 0,0
12.08.2018 22:00:00 19,5 15,2 4 2 16 9 W 0,0
12.08.2018 21:00:00 20,5 16,1 8 5 18 10 W 0,0
12.08.2018 20:00:00 22,5 18,5 11 6 30 16 NW -
12.08.2018 19:00:00 25,6 16,1 6 3 38 20 NNW 0,0
12.08.2018 18:00:00 29,7 18,2 6 3 19 10 S 0,0
12.08.2018 17:00:00 31,0 16,6 13 7 25 14 SW 0,0
12.08.2018 16:00:00 32,6 15,6 5 3 22 12 NW 0,0
12.08.2018 15:00:00 30,2 18,0 6 3 22 12 SE 0,0
12.08.2018 14:00:00 30,1 18,8 3 2 23 13 SSW -
12.08.2018 13:00:00 28,3 19,0 9 5 21 12 SW 0,0
12.08.2018 12:00:00 28,1 19,3 8 5 19 10 SW 0,0
12.08.2018 11:00:00 26,3 19,2 6 3 16 8 SSE 0,0
12.08.2018 10:00:00 23,9 19,4 9 5 17 9 SE 0,0
12.08.2018 09:00:00 21,5 19,4 7 4 14 8 ESE 0,0
12.08.2018 08:00:00 18,9 18,5 3 2 6 3 E -
12.08.2018 07:00:00 18,4 18,1 0 0 6 3 ESE 0,0
12.08.2018 06:00:00 18,4 18,1 3 1 6 4 E 0,0
12.08.2018 05:00:00 18,6 18,1 5 3 7 4 E 0,0
12.08.2018 04:00:00 19,3 18,3 2 1 10 5 E 0,0
12.08.2018 03:00:00 19,9 19,1 5 3 10 5 SE 0,0
12.08.2018 02:00:00 19,9 18,5 3 2 5 3 E -
12.08.2018 01:00:00 20,7 19,0 3 1 7 4 SSE 0,0
12.08.2018 00:00:00 21,1 18,8 3 1 5 3 ESE 0,0
11.08.2018 23:00:00 22,9 18,8 1 1 6 3 S 0,0
11.08.2018 22:00:00 24,9 18,3 2 1 12 6 S 0,0
11.08.2018 21:00:00 27,4 18,4 4 2 15 8 WNW 0,0
11.08.2018 20:00:00 30,4 17,5 6 3 13 7 N -
11.08.2018 19:00:00 30,9 16,5 5 3 16 9 NNW 0,0
11.08.2018 18:00:00 30,7 16,6 5 3 14 8 NW 0,0
11.08.2018 17:00:00 29,6 17,8 3 2 14 7 WNW 0,0
11.08.2018 16:00:00 29,4 18,2 4 2 13 7 W 0,0
11.08.2018 15:00:00 27,8 17,9 6 4 20 11 NW 0,0
11.08.2018 14:00:00 26,4 17,5 3 2 15 8 SSW -
11.08.2018 13:00:00 25,1 17,3 7 4 16 8 SE 0,0
11.08.2018 12:00:00 23,4 16,9 5 3 10 6 WNW 0,0
11.08.2018 11:00:00 19,8 15,9 3 1 8 4 W 0,0
11.08.2018 10:00:00 17,7 15,7 1 0 6 3 E 0,0
11.08.2018 09:00:00 15,5 15,3 2 1 4 2 W 0,0
11.08.2018 08:00:00 13,8 13,7 0 0 3 2 SE -
11.08.2018 07:00:00 13,6 13,5 1 1 6 3 E 0,0
11.08.2018 06:00:00 13,8 13,7 3 2 4 2 E 0,0
11.08.2018 05:00:00 14,1 13,8 3 1 6 3 E 0,0
11.08.2018 04:00:00 14,4 14,0 2 1 5 3 SE 0,0
11.08.2018 03:00:00 14,7 14,2 2 1 5 3 ESE 0,0
11.08.2018 02:00:00 15,0 14,3 4 2 6 3 E -
11.08.2018 01:00:00 15,4 14,6 4 2 5 3 E 0,0
11.08.2018 00:00:00 16,3 14,6 2 1 5 3 E 0,0
10.08.2018 23:00:00 17,4 15,1 2 1 9 5 SSW 0,0
10.08.2018 22:00:00 18,4 14,7 7 4 13 7 NNW 0,0
10.08.2018 21:00:00 20,5 14,4 7 4 19 11 NNW 0,0
10.08.2018 20:00:00 22,7 14,8 13 7 23 13 NNW -
10.08.2018 19:00:00 25,0 15,3 10 5 27 15 N 0,0
10.08.2018 18:00:00 26,2 15,0 10 5 22 12 NNE 0,0
10.08.2018 17:00:00 27,1 14,5 2 1 17 9 WNW 0,0
10.08.2018 16:00:00 26,4 14,1 5 3 20 11 NW 0,0
10.08.2018 15:00:00 25,3 13,9 5 3 14 8 N 0,0
10.08.2018 14:00:00 23,5 13,7 6 3 16 9 N -
10.08.2018 13:00:00 22,3 13,7 4 2 14 8 NW 0,0
10.08.2018 12:00:00 20,0 13,3 4 2 12 7 NW 0,0
10.08.2018 11:00:00 18,1 13,2 4 2 9 5 NW 0,0
10.08.2018 10:00:00 16,1 13,1 2 1 6 3 SW 0,0
10.08.2018 09:00:00 14,3 13,6 1 0 5 3 W 0,0
10.08.2018 08:00:00 12,2 12,0 2 1 5 3 E -
10.08.2018 07:00:00 11,9 11,8 3 2 5 3 E 0,0
10.08.2018 06:00:00 12,3 12,1 0 0 4 2 E 0,0
10.08.2018 05:00:00 12,3 12,0 1 1 7 4 S 0,0
10.08.2018 04:00:00 11,9 11,6 2 1 6 3 E 0,0
10.08.2018 03:00:00 12,4 11,7 2 1 5 3 SE 0,0

tt = Température de l'air
td = dewpoint
ff = Vitesse du vent
fx = gusts
dd = Direction du vent
rr = Quantités de précipitations

stations d'obs. à proximité